PWSweather.com
Personal Weather Stations
Station Observations
ILOMBARD30
LodiIT 26900

LodiIT 26900

Lat: 45.2993, Lon: 9.5207

Elevation: 255

Station Type: Davis Vantege Pro2 Plus 24h

http://www.meteo-iw2gob.it

High Low Average
Temperature 73.9°F23.3°C 45.6°F7.6°C 60.8°F16.0°C
Dew Point 48.8°F9.3°C 39.9°F4.4°C 44.7°F7.1°C
Winds 12.7 mph 20.4 kmh Calm Calm 5.0 mph SW8.0 kmh SW
Wind Gusts 17.3 mph27.8 kmh -- 8.0 mph12.9 kmh
Humidity 83% 35% 57%
Pressure 29.95 in1014.2 mb 29.83 in1010.2 mb -
Precipitation 0.00 in0.0 mm - -
Hour Temp Dew Point Humidity Winds Wind Gusts Pressure Precip Precip Rate Daily Precip Total
12:00 AM 56.8°F13.8°C 43.1°F6.2°C 60% 5.8 mph W9.3 kmh W 6.9 mph11.1 kmh 29.85 in1010.8 mb - 0.00 in0.0 mm 0.00 in0.0 mm
12:05 AM 56.7°F13.7°C 43.0°F6.1°C 60% 4.6 mph W7.4 kmh W 6.9 mph11.1 kmh 29.85 in1010.8 mb - 0.00 in0.0 mm 0.00 in0.0 mm
12:10 AM 56.6°F13.7°C 42.9°F6.1°C 60% 3.5 mph WSW5.6 kmh WSW 6.9 mph11.1 kmh 29.86 in1011.2 mb - 0.00 in0.0 mm 0.00 in0.0 mm
12:15 AM 56.4°F13.6°C 43.1°F6.2°C 61% 5.8 mph W9.3 kmh W 8.1 mph13.0 kmh 29.85 in1010.8 mb - 0.00 in0.0 mm 0.00 in0.0 mm
12:20 AM 56.3°F13.5°C 43.0°F6.1°C 61% 4.6 mph WSW7.4 kmh WSW 6.9 mph11.1 kmh 29.85 in1010.8 mb - 0.00 in0.0 mm 0.00 in0.0 mm
12:25 AM 56.2°F13.4°C 42.9°F6.1°C 61% 5.8 mph W9.3 kmh W 9.2 mph14.8 kmh 29.86 in1011.2 mb - 0.00 in0.0 mm 0.00 in0.0 mm
12:30 AM 56.1°F13.4°C 42.8°F6.0°C 61% 5.8 mph W9.3 kmh W 11.5 mph18.5 kmh 29.85 in1010.8 mb - 0.00 in0.0 mm 0.00 in0.0 mm
12:35 AM 56.1°F13.4°C 42.8°F6.0°C 61% 8.1 mph W13.0 kmh W 11.5 mph18.5 kmh 29.85 in1010.8 mb - 0.00 in0.0 mm 0.00 in0.0 mm
12:40 AM 56.1°F13.4°C 42.8°F6.0°C 61% 4.6 mph W7.4 kmh W 6.9 mph11.1 kmh 29.86 in1011.2 mb - 0.00 in0.0 mm 0.00 in0.0 mm
12:45 AM 56.0°F13.3°C 42.7°F5.9°C 61% 8.1 mph WSW13.0 kmh WSW 11.5 mph18.5 kmh 29.85 in1010.8 mb - 0.00 in0.0 mm 0.00 in0.0 mm
12:50 AM 56.0°F13.3°C 42.7°F5.9°C 61% 5.8 mph WSW9.3 kmh WSW 8.1 mph13.0 kmh 29.86 in1011.2 mb - 0.00 in0.0 mm 0.00 in0.0 mm
12:55 AM 56.0°F13.3°C 42.7°F5.9°C 61% 6.9 mph WSW11.1 kmh WSW 11.5 mph18.5 kmh 29.85 in1010.8 mb - 0.00 in0.0 mm 0.00 in0.0 mm
01:00 AM 56.0°F13.3°C 42.7°F5.9°C 61% 6.9 mph WSW11.1 kmh WSW 11.5 mph18.5 kmh 29.86 in1011.2 mb - 0.00 in0.0 mm 0.00 in0.0 mm
01:05 AM 56.0°F13.3°C 42.7°F5.9°C 61% 5.8 mph WSW9.3 kmh WSW 6.9 mph11.1 kmh 29.85 in1010.8 mb - 0.00 in0.0 mm 0.00 in0.0 mm
01:10 AM 56.0°F13.3°C 42.7°F5.9°C 61% 6.9 mph WSW11.1 kmh WSW 9.2 mph14.8 kmh 29.85 in1010.8 mb - 0.00 in0.0 mm 0.00 in0.0 mm
01:15 AM 55.9°F13.3°C 42.6°F5.9°C 61% 6.9 mph W11.1 kmh W 11.5 mph18.5 kmh 29.85 in1010.8 mb - 0.00 in0.0 mm 0.00 in0.0 mm
01:20 AM 56.0°F13.3°C 42.7°F5.9°C 61% 8.1 mph WSW13.0 kmh WSW 11.5 mph18.5 kmh 29.85 in1010.8 mb - 0.00 in0.0 mm 0.00 in0.0 mm
01:25 AM 56.1°F13.4°C 42.4°F5.8°C 60% 6.9 mph WSW11.1 kmh WSW 10.4 mph16.7 kmh 29.85 in1010.8 mb - 0.00 in0.0 mm 0.00 in0.0 mm
01:30 AM 56.2°F13.4°C 42.5°F5.8°C 60% 8.1 mph W13.0 kmh W 9.2 mph14.8 kmh 29.85 in1010.8 mb - 0.00 in0.0 mm 0.00 in0.0 mm
01:35 AM 56.4°F13.6°C 42.7°F5.9°C 60% 5.8 mph WSW9.3 kmh WSW 9.2 mph14.8 kmh 29.85 in1010.8 mb - 0.00 in0.0 mm 0.00 in0.0 mm
01:40 AM 56.5°F13.6°C 42.8°F6.0°C 60% 6.9 mph WSW11.1 kmh WSW 10.4 mph16.7 kmh 29.85 in1010.8 mb - 0.00 in0.0 mm 0.00 in0.0 mm
01:45 AM 56.5°F13.6°C 42.3°F5.7°C 59% 6.9 mph WSW11.1 kmh WSW 11.5 mph18.5 kmh 29.85 in1010.8 mb - 0.00 in0.0 mm 0.00 in0.0 mm
01:50 AM 56.6°F13.7°C 42.4°F5.8°C 59% 8.1 mph WSW13.0 kmh WSW 9.2 mph14.8 kmh 29.85 in1010.8 mb - 0.00 in0.0 mm 0.00 in0.0 mm
01:55 AM 56.6°F13.7°C 42.4°F5.8°C 59% 5.8 mph WSW9.3 kmh WSW 10.4 mph16.7 kmh 29.85 in1010.8 mb - 0.00 in0.0 mm 0.00 in0.0 mm
02:00 AM 56.5°F13.6°C 42.3°F5.7°C 59% 5.8 mph W9.3 kmh W 8.1 mph13.0 kmh 29.85 in1010.8 mb - 0.00 in0.0 mm 0.00 in0.0 mm
02:05 AM 56.4°F13.6°C 42.2°F5.7°C 59% 5.8 mph W9.3 kmh W 9.2 mph14.8 kmh 29.85 in1010.8 mb - 0.00 in0.0 mm 0.00 in0.0 mm
02:10 AM 56.3°F13.5°C 42.1°F5.6°C 59% 5.8 mph W9.3 kmh W 6.9 mph11.1 kmh 29.85 in1010.8 mb - 0.00 in0.0 mm 0.00 in0.0 mm
02:15 AM 56.4°F13.6°C 42.3°F5.7°C 59% 6.9 mph W11.1 kmh W 10.4 mph16.7 kmh 29.85 in1010.8 mb - 0.00 in0.0 mm 0.00 in0.0 mm
02:20 AM 56.6°F13.7°C 42.4°F5.8°C 59% 5.8 mph W9.3 kmh W 11.5 mph18.5 kmh 29.85 in1010.8 mb - 0.00 in0.0 mm 0.00 in0.0 mm
02:25 AM 56.7°F13.7°C 42.1°F5.6°C 58% 4.6 mph W7.4 kmh W 11.5 mph18.5 kmh 29.85 in1010.8 mb - 0.00 in0.0 mm 0.00 in0.0 mm
02:30 AM 57.0°F13.9°C 42.3°F5.7°C 58% 5.8 mph W9.3 kmh W 9.2 mph14.8 kmh 29.85 in1010.8 mb - 0.00 in0.0 mm 0.00 in0.0 mm
02:35 AM 57.1°F13.9°C 42.5°F5.8°C 58% 8.1 mph W13.0 kmh W 10.4 mph16.7 kmh 29.85 in1010.8 mb - 0.00 in0.0 mm 0.00 in0.0 mm
02:40 AM 57.1°F13.9°C 42.5°F5.8°C 58% 8.1 mph WSW13.0 kmh WSW 11.5 mph18.5 kmh 29.84 in1010.5 mb - 0.00 in0.0 mm 0.00 in0.0 mm
02:45 AM 56.9°F13.8°C 42.3°F5.7°C 58% 6.9 mph W11.1 kmh W 11.5 mph18.5 kmh 29.84 in1010.5 mb - 0.00 in0.0 mm 0.00 in0.0 mm
02:50 AM 56.8°F13.8°C 42.6°F5.9°C 59% 6.9 mph WSW11.1 kmh WSW 10.4 mph16.7 kmh 29.84 in1010.5 mb - 0.00 in0.0 mm 0.00 in0.0 mm
02:55 AM 56.6°F13.7°C 42.4°F5.8°C 59% 6.9 mph W11.1 kmh W 9.2 mph14.8 kmh 29.84 in1010.5 mb - 0.00 in0.0 mm 0.00 in0.0 mm
03:00 AM 56.5°F13.6°C 42.3°F5.7°C 59% 6.9 mph WSW11.1 kmh WSW 11.5 mph18.5 kmh 29.84 in1010.5 mb - 0.00 in0.0 mm 0.00 in0.0 mm
03:05 AM 56.4°F13.6°C 42.2°F5.7°C 59% 5.8 mph WSW9.3 kmh WSW 6.9 mph11.1 kmh 29.84 in1010.5 mb - 0.00 in0.0 mm 0.00 in0.0 mm
03:10 AM 56.3°F13.5°C 42.1°F5.6°C 59% 5.8 mph WSW9.3 kmh WSW 10.4 mph16.7 kmh 29.84 in1010.5 mb - 0.00 in0.0 mm 0.00 in0.0 mm
03:15 AM 56.3°F13.5°C 42.1°F5.6°C 59% 6.9 mph WSW11.1 kmh WSW 9.2 mph14.8 kmh 29.84 in1010.5 mb - 0.00 in0.0 mm 0.00 in0.0 mm
03:20 AM 56.3°F13.5°C 42.1°F5.6°C 59% 9.2 mph WSW14.8 kmh WSW 13.8 mph22.2 kmh 29.84 in1010.5 mb - 0.00 in0.0 mm 0.00 in0.0 mm
03:25 AM 56.3°F13.5°C 42.1°F5.6°C 59% 8.1 mph WSW13.0 kmh WSW 11.5 mph18.5 kmh 29.84 in1010.5 mb - 0.00 in0.0 mm 0.00 in0.0 mm
03:30 AM 56.2°F13.4°C 42.1°F5.6°C 59% 8.1 mph WSW13.0 kmh WSW 12.7 mph20.4 kmh 29.84 in1010.5 mb - 0.00 in0.0 mm 0.00 in0.0 mm
03:35 AM 56.2°F13.4°C 42.0°F5.6°C 59% 6.9 mph W11.1 kmh W 11.5 mph18.5 kmh 29.84 in1010.5 mb - 0.00 in0.0 mm 0.00 in0.0 mm
03:40 AM 56.2°F13.4°C 42.1°F5.6°C 59% 4.6 mph W7.4 kmh W 5.8 mph9.3 kmh 29.84 in1010.5 mb - 0.00 in0.0 mm 0.00 in0.0 mm
03:45 AM 56.2°F13.4°C 42.1°F5.6°C 59% 5.8 mph W9.3 kmh W 12.7 mph20.4 kmh 29.84 in1010.5 mb - 0.00 in0.0 mm 0.00 in0.0 mm
03:50 AM 56.1°F13.4°C 42.0°F5.6°C 59% 4.6 mph W7.4 kmh W 5.8 mph9.3 kmh 29.84 in1010.5 mb - 0.00 in0.0 mm 0.00 in0.0 mm
03:55 AM 56.0°F13.3°C 42.3°F5.7°C 60% 5.8 mph NW9.3 kmh NW 6.9 mph11.1 kmh 29.84 in1010.5 mb - 0.00 in0.0 mm 0.00 in0.0 mm
04:00 AM 55.9°F13.3°C 42.2°F5.7°C 60% 3.5 mph W5.6 kmh W 8.1 mph13.0 kmh 29.84 in1010.5 mb - 0.00 in0.0 mm 0.00 in0.0 mm
04:05 AM 55.8°F13.2°C 42.1°F5.6°C 60% 3.5 mph W5.6 kmh W 4.6 mph7.4 kmh 29.84 in1010.5 mb - 0.00 in0.0 mm 0.00 in0.0 mm
04:10 AM 55.7°F13.2°C 42.0°F5.6°C 60% 4.6 mph W7.4 kmh W 5.8 mph9.3 kmh 29.84 in1010.5 mb - 0.00 in0.0 mm 0.00 in0.0 mm
04:15 AM 55.6°F13.1°C 41.9°F5.5°C 60% 2.3 mph WNW3.7 kmh WNW 8.1 mph13.0 kmh 29.84 in1010.5 mb - 0.00 in0.0 mm 0.00 in0.0 mm
04:20 AM 55.5°F13.1°C 42.3°F5.7°C 61% 3.5 mph NW5.6 kmh NW 4.6 mph7.4 kmh 29.84 in1010.5 mb - 0.00 in0.0 mm 0.00 in0.0 mm
04:25 AM 55.4°F13.0°C 42.2°F5.7°C 61% 3.5 mph WSW5.6 kmh WSW 5.8 mph9.3 kmh 29.84 in1010.5 mb - 0.00 in0.0 mm 0.00 in0.0 mm
04:30 AM 55.3°F12.9°C 42.1°F5.6°C 61% 1.2 mph W1.9 kmh W 2.3 mph3.7 kmh 29.84 in1010.5 mb - 0.00 in0.0 mm 0.00 in0.0 mm
04:35 AM 55.1°F12.8°C 42.3°F5.7°C 62% 1.2 mph W1.9 kmh W 1.2 mph1.9 kmh 29.85 in1010.8 mb - 0.00 in0.0 mm 0.00 in0.0 mm
04:40 AM 55.0°F12.8°C 42.2°F5.7°C 62% 2.3 mph NE3.7 kmh NE 3.5 mph5.6 kmh 29.85 in1010.8 mb - 0.00 in0.0 mm 0.00 in0.0 mm
04:45 AM 54.5°F12.5°C 42.2°F5.7°C 63% 1.2 mph ENE1.9 kmh ENE 2.3 mph3.7 kmh 29.85 in1010.8 mb - 0.00 in0.0 mm 0.00 in0.0 mm
04:50 AM 54.2°F12.3°C 41.8°F5.4°C 63% Calm Calm 1.2 mph1.9 kmh 29.85 in1010.8 mb - 0.00 in0.0 mm 0.00 in0.0 mm
04:55 AM 53.9°F12.2°C 42.0°F5.6°C 64% 2.3 mph NNE3.7 kmh NNE 3.5 mph5.6 kmh 29.85 in1010.8 mb - 0.00 in0.0 mm 0.00 in0.0 mm
05:00 AM 53.7°F12.1°C 41.8°F5.4°C 64% Calm Calm 1.2 mph1.9 kmh 29.85 in1010.8 mb - 0.00 in0.0 mm 0.00 in0.0 mm
05:05 AM 53.5°F11.9°C 42.0°F5.6°C 65% 1.2 mph WSW1.9 kmh WSW 3.5 mph5.6 kmh 29.85 in1010.8 mb - 0.00 in0.0 mm 0.00 in0.0 mm
05:10 AM 53.3°F11.8°C 41.8°F5.4°C 65% 1.2 mph W1.9 kmh W 3.5 mph5.6 kmh 29.85 in1010.8 mb - 0.00 in0.0 mm 0.00 in0.0 mm
05:15 AM 53.1°F11.7°C 42.0°F5.6°C 66% Calm Calm 1.2 mph1.9 kmh 29.85 in1010.8 mb - 0.00 in0.0 mm 0.00 in0.0 mm
05:20 AM 52.9°F11.6°C 42.2°F5.7°C 67% Calm Calm 1.2 mph1.9 kmh 29.85 in1010.8 mb - 0.00 in0.0 mm 0.00 in0.0 mm
05:25 AM 52.6°F11.4°C 42.0°F5.6°C 67% 1.2 mph W1.9 kmh W 2.3 mph3.7 kmh 29.86 in1011.2 mb - 0.00 in0.0 mm 0.00 in0.0 mm
05:30 AM 52.4°F11.3°C 41.8°F5.4°C 67% Calm Calm -- 29.86 in1011.2 mb - 0.00 in0.0 mm 0.00 in0.0 mm
05:35 AM 52.3°F11.3°C 42.0°F5.6°C 68% 2.3 mph WSW3.7 kmh WSW 3.5 mph5.6 kmh 29.86 in1011.2 mb - 0.00 in0.0 mm 0.00 in0.0 mm
05:40 AM 52.1°F11.2°C 42.2°F5.7°C 69% 1.2 mph W1.9 kmh W 3.5 mph5.6 kmh 29.85 in1010.8 mb - 0.00 in0.0 mm 0.00 in0.0 mm
05:45 AM 52.1°F11.2°C 42.2°F5.7°C 69% 1.2 mph WSW1.9 kmh WSW 3.5 mph5.6 kmh 29.86 in1011.2 mb - 0.00 in0.0 mm 0.00 in0.0 mm
05:50 AM 51.9°F11.1°C 41.7°F5.4°C 68% 1.2 mph WSW1.9 kmh WSW 2.3 mph3.7 kmh 29.86 in1011.2 mb - 0.00 in0.0 mm 0.00 in0.0 mm
05:55 AM 51.7°F10.9°C 41.4°F5.2°C 68% 2.3 mph NW3.7 kmh NW 3.5 mph5.6 kmh 29.86 in1011.2 mb - 0.00 in0.0 mm 0.00 in0.0 mm
06:00 AM 51.4°F10.8°C 41.9°F5.5°C 70% 1.2 mph WNW1.9 kmh WNW 3.5 mph5.6 kmh 29.86 in1011.2 mb - 0.00 in0.0 mm 0.00 in0.0 mm
06:05 AM 51.3°F10.7°C 41.8°F5.4°C 70% Calm Calm -- 29.86 in1011.2 mb - 0.00 in0.0 mm 0.00 in0.0 mm
06:10 AM 51.2°F10.7°C 42.1°F5.6°C 71% 1.2 mph WNW1.9 kmh WNW 2.3 mph3.7 kmh 29.86 in1011.2 mb - 0.00 in0.0 mm 0.00 in0.0 mm
06:15 AM 51.2°F10.7°C 42.1°F5.6°C 71% 1.2 mph WNW1.9 kmh WNW 1.2 mph1.9 kmh 29.86 in1011.2 mb - 0.00 in0.0 mm 0.00 in0.0 mm
06:20 AM 51.1°F10.6°C 42.0°F5.6°C 71% Calm Calm -- 29.86 in1011.2 mb - 0.00 in0.0 mm 0.00 in0.0 mm
06:25 AM 50.9°F10.5°C 41.8°F5.4°C 71% 1.2 mph NE1.9 kmh NE 3.5 mph5.6 kmh 29.87 in1011.5 mb - 0.00 in0.0 mm 0.00 in0.0 mm
06:30 AM 50.0°F10.0°C 41.0°F5.0°C 71% 1.2 mph NE1.9 kmh NE 2.3 mph3.7 kmh 29.87 in1011.5 mb - 0.00 in0.0 mm 0.00 in0.0 mm
06:35 AM 49.5°F9.7°C 40.8°F4.9°C 72% Calm Calm 1.2 mph1.9 kmh 29.87 in1011.5 mb - 0.00 in0.0 mm 0.00 in0.0 mm
06:40 AM 49.0°F9.4°C 40.7°F4.8°C 73% Calm Calm 1.2 mph1.9 kmh 29.87 in1011.5 mb - 0.00 in0.0 mm 0.00 in0.0 mm
06:45 AM 48.5°F9.2°C 40.6°F4.8°C 74% 1.2 mph NE1.9 kmh NE 1.2 mph1.9 kmh 29.87 in1011.5 mb - 0.00 in0.0 mm 0.00 in0.0 mm
06:50 AM 48.1°F8.9°C 40.5°F4.7°C 75% 1.2 mph NE1.9 kmh NE 1.2 mph1.9 kmh 29.87 in1011.5 mb - 0.00 in0.0 mm 0.00 in0.0 mm
06:55 AM 47.7°F8.7°C 40.2°F4.6°C 75% Calm Calm 2.3 mph3.7 kmh 29.87 in1011.5 mb - 0.00 in0.0 mm 0.00 in0.0 mm
07:00 AM 47.3°F8.5°C 40.2°F4.6°C 76% 1.2 mph NE1.9 kmh NE 2.3 mph3.7 kmh 29.87 in1011.5 mb - 0.00 in0.0 mm 0.00 in0.0 mm
07:05 AM 46.9°F8.3°C 40.1°F4.5°C 77% 2.3 mph NNE3.7 kmh NNE 3.5 mph5.6 kmh 29.87 in1011.5 mb - 0.00 in0.0 mm 0.00 in0.0 mm
07:10 AM 46.4°F8.0°C 39.9°F4.4°C 78% 1.2 mph NNE1.9 kmh NNE 1.2 mph1.9 kmh 29.87 in1011.5 mb - 0.00 in0.0 mm 0.00 in0.0 mm
07:15 AM 46.0°F7.8°C 39.9°F4.4°C 79% Calm Calm 1.2 mph1.9 kmh 29.88 in1011.9 mb - 0.00 in0.0 mm 0.00 in0.0 mm
07:20 AM 45.9°F7.7°C 40.0°F4.4°C 80% Calm Calm 2.3 mph3.7 kmh 29.88 in1011.9 mb - 0.00 in0.0 mm 0.00 in0.0 mm
07:25 AM 45.7°F7.6°C 40.2°F4.6°C 81% 1.2 mph NE1.9 kmh NE 1.2 mph1.9 kmh 29.88 in1011.9 mb - 0.00 in0.0 mm 0.00 in0.0 mm
07:30 AM 45.6°F7.6°C 40.4°F4.7°C 82% Calm Calm -- 29.88 in1011.9 mb - 0.00 in0.0 mm 0.00 in0.0 mm
07:35 AM 45.7°F7.6°C 40.5°F4.7°C 82% Calm Calm -- 29.88 in1011.9 mb - 0.00 in0.0 mm 0.00 in0.0 mm
07:40 AM 45.8°F7.7°C 40.6°F4.8°C 82% 1.2 mph NE1.9 kmh NE 2.3 mph3.7 kmh 29.88 in1011.9 mb - 0.00 in0.0 mm 0.00 in0.0 mm
07:45 AM 46.0°F7.8°C 41.1°F5.1°C 83% 1.2 mph NE1.9 kmh NE 2.3 mph3.7 kmh 29.89 in1012.2 mb - 0.00 in0.0 mm 0.00 in0.0 mm
07:50 AM 46.4°F8.0°C 41.5°F5.3°C 83% 1.2 mph NW1.9 kmh NW 3.5 mph5.6 kmh 29.88 in1011.9 mb - 0.00 in0.0 mm 0.00 in0.0 mm
07:55 AM 47.0°F8.3°C 42.1°F5.6°C 83% 1.2 mph NW1.9 kmh NW 2.3 mph3.7 kmh 29.88 in1011.9 mb - 0.00 in0.0 mm 0.00 in0.0 mm
08:00 AM 47.7°F8.7°C 42.8°F6.0°C 83% 2.3 mph W3.7 kmh W 4.6 mph7.4 kmh 29.88 in1011.9 mb - 0.00 in0.0 mm 0.00 in0.0 mm
08:05 AM 48.5°F9.2°C 43.3°F6.3°C 82% Calm Calm 1.2 mph1.9 kmh 29.89 in1012.2 mb - 0.00 in0.0 mm 0.00 in0.0 mm
08:10 AM 49.2°F9.6°C 43.7°F6.5°C 81% Calm Calm -- 29.89 in1012.2 mb - 0.00 in0.0 mm 0.00 in0.0 mm
08:15 AM 49.9°F9.9°C 44.0°F6.7°C 80% 2.3 mph NE3.7 kmh NE 3.5 mph5.6 kmh 29.89 in1012.2 mb - 0.00 in0.0 mm 0.00 in0.0 mm
08:20 AM 50.6°F10.3°C 44.0°F6.7°C 78% 2.3 mph NE3.7 kmh NE 3.5 mph5.6 kmh 29.89 in1012.2 mb - 0.00 in0.0 mm 0.00 in0.0 mm
08:25 AM 51.0°F10.6°C 44.1°F6.7°C 77% 2.3 mph NNE3.7 kmh NNE 3.5 mph5.6 kmh 29.89 in1012.2 mb - 0.00 in0.0 mm 0.00 in0.0 mm
08:30 AM 51.4°F10.8°C 44.1°F6.7°C 76% 1.2 mph N1.9 kmh N 3.5 mph5.6 kmh 29.90 in1012.5 mb - 0.00 in0.0 mm 0.00 in0.0 mm
08:35 AM 51.9°F11.1°C 44.2°F6.8°C 75% 2.3 mph N3.7 kmh N 3.5 mph5.6 kmh 29.90 in1012.5 mb - 0.00 in0.0 mm 0.00 in0.0 mm
08:40 AM 52.4°F11.3°C 44.4°F6.9°C 74% 1.2 mph NE1.9 kmh NE 1.2 mph1.9 kmh 29.90 in1012.5 mb - 0.00 in0.0 mm 0.00 in0.0 mm
08:45 AM 52.9°F11.6°C 44.8°F7.1°C 74% 1.2 mph NE1.9 kmh NE 2.3 mph3.7 kmh 29.90 in1012.5 mb - 0.00 in0.0 mm 0.00 in0.0 mm
08:50 AM 53.5°F11.9°C 45.0°F7.2°C 73% 2.3 mph E3.7 kmh E 3.5 mph5.6 kmh 29.90 in1012.5 mb - 0.00 in0.0 mm 0.00 in0.0 mm
08:55 AM 53.9°F12.2°C 45.1°F7.3°C 72% Calm Calm 2.3 mph3.7 kmh 29.90 in1012.5 mb - 0.00 in0.0 mm 0.00 in0.0 mm
09:00 AM 54.4°F12.4°C 45.6°F7.6°C 72% 2.3 mph WSW3.7 kmh WSW 4.6 mph7.4 kmh 29.90 in1012.5 mb - 0.00 in0.0 mm 0.00 in0.0 mm
09:05 AM 55.7°F13.2°C 46.8°F8.2°C 72% 4.6 mph W7.4 kmh W 4.6 mph7.4 kmh 29.90 in1012.5 mb - 0.00 in0.0 mm 0.00 in0.0 mm
09:10 AM 56.8°F13.8°C 47.1°F8.4°C 70% 4.6 mph W7.4 kmh W 8.1 mph13.0 kmh 29.90 in1012.5 mb - 0.00 in0.0 mm 0.00 in0.0 mm
09:15 AM 57.6°F14.2°C 47.5°F8.6°C 69% 3.5 mph W5.6 kmh W 3.5 mph5.6 kmh 29.90 in1012.5 mb - 0.00 in0.0 mm 0.00 in0.0 mm
09:20 AM 58.2°F14.6°C 47.7°F8.7°C 68% 4.6 mph WSW7.4 kmh WSW 3.5 mph5.6 kmh 29.91 in1012.9 mb - 0.00 in0.0 mm 0.00 in0.0 mm
09:25 AM 58.7°F14.8°C 47.8°F8.8°C 67% 4.6 mph W7.4 kmh W 8.1 mph13.0 kmh 29.91 in1012.9 mb - 0.00 in0.0 mm 0.00 in0.0 mm
09:30 AM 59.2°F15.1°C 47.9°F8.8°C 66% 4.6 mph W7.4 kmh W 6.9 mph11.1 kmh 29.91 in1012.9 mb - 0.00 in0.0 mm 0.00 in0.0 mm
09:35 AM 59.6°F15.3°C 47.8°F8.8°C 65% 6.9 mph W11.1 kmh W 6.9 mph11.1 kmh 29.91 in1012.9 mb - 0.00 in0.0 mm 0.00 in0.0 mm
09:40 AM 59.9°F15.5°C 47.7°F8.7°C 64% 5.8 mph W9.3 kmh W 8.1 mph13.0 kmh 29.91 in1012.9 mb - 0.00 in0.0 mm 0.00 in0.0 mm
09:45 AM 60.3°F15.7°C 48.1°F8.9°C 64% 3.5 mph W5.6 kmh W 5.8 mph9.3 kmh 29.91 in1012.9 mb - 0.00 in0.0 mm 0.00 in0.0 mm
09:50 AM 60.8°F16.0°C 48.1°F8.9°C 63% 3.5 mph WSW5.6 kmh WSW 8.1 mph13.0 kmh 29.91 in1012.9 mb - 0.00 in0.0 mm 0.00 in0.0 mm
09:55 AM 61.4°F16.3°C 48.2°F9.0°C 62% 4.6 mph WSW7.4 kmh WSW 8.1 mph13.0 kmh 29.91 in1012.9 mb - 0.00 in0.0 mm 0.00 in0.0 mm
10:00 AM 61.7°F16.5°C 48.1°F8.9°C 61% 5.8 mph WSW9.3 kmh WSW 8.1 mph13.0 kmh 29.91 in1012.9 mb - 0.00 in0.0 mm 0.00 in0.0 mm
10:05 AM 62.0°F16.7°C 48.3°F9.1°C 61% 5.8 mph WSW9.3 kmh WSW 6.9 mph11.1 kmh 29.91 in1012.9 mb - 0.00 in0.0 mm 0.00 in0.0 mm
10:10 AM 62.4°F16.9°C 48.3°F9.1°C 60% 6.9 mph W11.1 kmh W 9.2 mph14.8 kmh 29.91 in1012.9 mb - 0.00 in0.0 mm 0.00 in0.0 mm
10:15 AM 62.6°F17.0°C 48.1°F8.9°C 59% 5.8 mph WSW9.3 kmh WSW 8.1 mph13.0 kmh 29.91 in1012.9 mb - 0.00 in0.0 mm 0.00 in0.0 mm
10:20 AM 62.9°F17.2°C 48.3°F9.1°C 59% 8.1 mph W13.0 kmh W 10.4 mph16.7 kmh 29.91 in1012.9 mb - 0.00 in0.0 mm 0.00 in0.0 mm
10:25 AM 62.9°F17.2°C 47.4°F8.6°C 57% 9.2 mph WSW14.8 kmh WSW 13.8 mph22.2 kmh 29.91 in1012.9 mb - 0.00 in0.0 mm 0.00 in0.0 mm
10:30 AM 62.9°F17.2°C 47.5°F8.6°C 57% 5.8 mph WSW9.3 kmh WSW 9.2 mph14.8 kmh 29.91 in1012.9 mb - 0.00 in0.0 mm 0.00 in0.0 mm
10:35 AM 63.3°F17.4°C 47.8°F8.8°C 57% 5.8 mph WSW9.3 kmh WSW 8.1 mph13.0 kmh 29.91 in1012.9 mb - 0.00 in0.0 mm 0.00 in0.0 mm
10:40 AM 63.8°F17.7°C 47.8°F8.8°C 56% 2.3 mph WSW3.7 kmh WSW 3.5 mph5.6 kmh 29.91 in1012.9 mb - 0.00 in0.0 mm 0.00 in0.0 mm
10:45 AM 64.5°F18.1°C 48.4°F9.1°C 56% 5.8 mph WSW9.3 kmh WSW 10.4 mph16.7 kmh 29.91 in1012.9 mb - 0.00 in0.0 mm 0.00 in0.0 mm
10:50 AM 64.9°F18.3°C 48.8°F9.3°C 56% 2.3 mph W3.7 kmh W 6.9 mph11.1 kmh 29.91 in1012.9 mb - 0.00 in0.0 mm 0.00 in0.0 mm
10:55 AM 65.3°F18.5°C 48.2°F9.0°C 54% 6.9 mph WSW11.1 kmh WSW 10.4 mph16.7 kmh 29.91 in1012.9 mb - 0.00 in0.0 mm 0.00 in0.0 mm
11:00 AM 65.3°F18.5°C 48.2°F9.0°C 54% 8.1 mph WSW13.0 kmh WSW 10.4 mph16.7 kmh 29.91 in1012.9 mb - 0.00 in0.0 mm 0.00 in0.0 mm
11:05 AM 65.1°F18.4°C 48.0°F8.9°C 54% 8.1 mph WSW13.0 kmh WSW 10.4 mph16.7 kmh 29.91 in1012.9 mb - 0.00 in0.0 mm 0.00 in0.0 mm
11:10 AM 65.0°F18.3°C 48.4°F9.1°C 55% 8.1 mph WSW13.0 kmh WSW 11.5 mph18.5 kmh 29.91 in1012.9 mb - 0.00 in0.0 mm 0.00 in0.0 mm
11:15 AM 65.1°F18.4°C 48.5°F9.2°C 55% 5.8 mph WSW9.3 kmh WSW 9.2 mph14.8 kmh 29.91 in1012.9 mb - 0.00 in0.0 mm 0.00 in0.0 mm
11:20 AM 65.4°F18.6°C 48.3°F9.1°C 54% 6.9 mph W11.1 kmh W 10.4 mph16.7 kmh 29.91 in1012.9 mb - 0.00 in0.0 mm 0.00 in0.0 mm
11:25 AM 65.6°F18.7°C 48.5°F9.2°C 54% 8.1 mph WSW13.0 kmh WSW 12.7 mph20.4 kmh 29.91 in1012.9 mb - 0.00 in0.0 mm 0.00 in0.0 mm
11:30 AM 65.7°F18.7°C 47.6°F8.7°C 52% 8.1 mph WSW13.0 kmh WSW 11.5 mph18.5 kmh 29.90 in1012.5 mb - 0.00 in0.0 mm 0.00 in0.0 mm
11:35 AM 66.0°F18.9°C 47.9°F8.8°C 52% 6.9 mph WSW11.1 kmh WSW 10.4 mph16.7 kmh 29.90 in1012.5 mb - 0.00 in0.0 mm 0.00 in0.0 mm
11:40 AM 66.3°F19.1°C 48.2°F9.0°C 52% 8.1 mph WSW13.0 kmh WSW 13.8 mph22.2 kmh 29.90 in1012.5 mb - 0.00 in0.0 mm 0.00 in0.0 mm
11:45 AM 66.4°F19.1°C 48.2°F9.0°C 52% 6.9 mph WSW11.1 kmh WSW 11.5 mph18.5 kmh 29.90 in1012.5 mb - 0.00 in0.0 mm 0.00 in0.0 mm
11:50 AM 66.7°F19.3°C 48.5°F9.2°C 52% 3.5 mph SW5.6 kmh SW 9.2 mph14.8 kmh 29.90 in1012.5 mb - 0.00 in0.0 mm 0.00 in0.0 mm
11:55 AM 67.4°F19.7°C 48.6°F9.2°C 51% 6.9 mph WSW11.1 kmh WSW 12.7 mph20.4 kmh 29.90 in1012.5 mb - 0.00 in0.0 mm 0.00 in0.0 mm
12:00 PM 67.7°F19.8°C 48.3°F9.1°C 50% 5.8 mph WSW9.3 kmh WSW 11.5 mph18.5 kmh 29.90 in1012.5 mb - 0.00 in0.0 mm 0.00 in0.0 mm
12:05 PM 67.8°F19.9°C 48.5°F9.2°C 50% 8.1 mph W13.0 kmh W 11.5 mph18.5 kmh 29.90 in1012.5 mb - 0.00 in0.0 mm 0.00 in0.0 mm
12:10 PM 67.8°F19.9°C 47.4°F8.6°C 48% 5.8 mph W9.3 kmh W 8.1 mph13.0 kmh 29.90 in1012.5 mb - 0.00 in0.0 mm 0.00 in0.0 mm
12:15 PM 68.1°F20.1°C 47.1°F8.4°C 47% 10.4 mph WSW16.7 kmh WSW 15.0 mph24.1 kmh 29.90 in1012.5 mb - 0.00 in0.0 mm 0.00 in0.0 mm
12:20 PM 68.1°F20.1°C 47.1°F8.4°C 47% 11.5 mph W18.5 kmh W 15.0 mph24.1 kmh 29.90 in1012.5 mb - 0.00 in0.0 mm 0.00 in0.0 mm
12:25 PM 68.0°F20.0°C 47.5°F8.6°C 48% 11.5 mph WSW18.5 kmh WSW 13.8 mph22.2 kmh 29.89 in1012.2 mb - 0.00 in0.0 mm 0.00 in0.0 mm
12:30 PM 68.0°F20.0°C 47.0°F8.3°C 47% 11.5 mph WSW18.5 kmh WSW 16.1 mph25.9 kmh 29.89 in1012.2 mb - 0.00 in0.0 mm 0.00 in0.0 mm
12:35 PM 68.4°F20.2°C 46.8°F8.2°C 46% 9.2 mph WSW14.8 kmh WSW 12.7 mph20.4 kmh 29.89 in1012.2 mb - 0.00 in0.0 mm 0.00 in0.0 mm
12:40 PM 68.7°F20.4°C 45.9°F7.7°C 44% 10.4 mph SW16.7 kmh SW 11.5 mph18.5 kmh 29.89 in1012.2 mb - 0.00 in0.0 mm 0.00 in0.0 mm
12:45 PM 69.2°F20.7°C 46.3°F7.9°C 44% 9.2 mph WSW14.8 kmh WSW 13.8 mph22.2 kmh 29.89 in1012.2 mb - 0.00 in0.0 mm 0.00 in0.0 mm
12:50 PM 69.5°F20.8°C 45.4°F7.4°C 42% 8.1 mph WSW13.0 kmh WSW 11.5 mph18.5 kmh 29.88 in1011.9 mb - 0.00 in0.0 mm 0.00 in0.0 mm
12:55 PM 69.8°F21.0°C 47.5°F8.6°C 45% 8.1 mph SW13.0 kmh SW 15.0 mph24.1 kmh 29.88 in1011.9 mb - 0.00 in0.0 mm 0.00 in0.0 mm
01:00 PM 70.1°F21.2°C 45.9°F7.7°C 42% 8.1 mph WSW13.0 kmh WSW 10.4 mph16.7 kmh 29.88 in1011.9 mb - 0.00 in0.0 mm 0.00 in0.0 mm
01:05 PM 70.3°F21.3°C 46.7°F8.2°C 43% 9.2 mph WSW14.8 kmh WSW 12.7 mph20.4 kmh 29.88 in1011.9 mb - 0.00 in0.0 mm 0.00 in0.0 mm
01:10 PM 70.5°F21.4°C 46.3°F7.9°C 42% 6.9 mph WSW11.1 kmh WSW 13.8 mph22.2 kmh 29.87 in1011.5 mb - 0.00 in0.0 mm 0.00 in0.0 mm
01:15 PM 70.8°F21.6°C 45.9°F7.7°C 41% 8.1 mph WSW13.0 kmh WSW 11.5 mph18.5 kmh 29.87 in1011.5 mb - 0.00 in0.0 mm 0.00 in0.0 mm
01:20 PM 71.1°F21.7°C 46.2°F7.9°C 41% 9.2 mph WSW14.8 kmh WSW 11.5 mph18.5 kmh 29.87 in1011.5 mb - 0.00 in0.0 mm 0.00 in0.0 mm
01:25 PM 71.5°F21.9°C 46.5°F8.1°C 41% 6.9 mph W11.1 kmh W 11.5 mph18.5 kmh 29.86 in1011.2 mb - 0.00 in0.0 mm 0.00 in0.0 mm
01:30 PM 71.9°F22.2°C 46.3°F7.9°C 40% 9.2 mph WSW14.8 kmh WSW 11.5 mph18.5 kmh 29.86 in1011.2 mb - 0.00 in0.0 mm 0.00 in0.0 mm
01:35 PM 72.0°F22.2°C 45.0°F7.2°C 38% 9.2 mph WSW14.8 kmh WSW 13.8 mph22.2 kmh 29.86 in1011.2 mb - 0.00 in0.0 mm 0.00 in0.0 mm
01:40 PM 72.1°F22.3°C 47.1°F8.4°C 41% 8.1 mph SW13.0 kmh SW 13.8 mph22.2 kmh 29.86 in1011.2 mb - 0.00 in0.0 mm 0.00 in0.0 mm
01:45 PM 72.6°F22.6°C 46.2°F7.9°C 39% 8.1 mph WSW13.0 kmh WSW 13.8 mph22.2 kmh 29.86 in1011.2 mb - 0.00 in0.0 mm 0.00 in0.0 mm
01:50 PM 72.6°F22.6°C 44.8°F7.1°C 37% 6.9 mph SW11.1 kmh SW 13.8 mph22.2 kmh 29.86 in1011.2 mb - 0.00 in0.0 mm 0.00 in0.0 mm
01:55 PM 72.7°F22.6°C 44.2°F6.8°C 36% 8.1 mph WSW13.0 kmh WSW 13.8 mph22.2 kmh 29.86 in1011.2 mb - 0.00 in0.0 mm 0.00 in0.0 mm
02:00 PM 72.9°F22.7°C 43.6°F6.4°C 35% 10.4 mph SW16.7 kmh SW 12.7 mph20.4 kmh 29.86 in1011.2 mb - 0.00 in0.0 mm 0.00 in0.0 mm
02:05 PM 73.1°F22.8°C 45.3°F7.4°C 37% 6.9 mph WSW11.1 kmh WSW 11.5 mph18.5 kmh 29.85 in1010.8 mb - 0.00 in0.0 mm 0.00 in0.0 mm
02:10 PM 73.0°F22.8°C 45.2°F7.3°C 37% 8.1 mph WSW13.0 kmh WSW 12.7 mph20.4 kmh 29.85 in1010.8 mb - 0.00 in0.0 mm 0.00 in0.0 mm
02:15 PM 73.1°F22.8°C 45.3°F7.4°C 37% 8.1 mph SW13.0 kmh SW 11.5 mph18.5 kmh 29.85 in1010.8 mb - 0.00 in0.0 mm 0.00 in0.0 mm
02:20 PM 73.3°F22.9°C 46.2°F7.9°C 38% 10.4 mph SW16.7 kmh SW 17.3 mph27.8 kmh 29.85 in1010.8 mb - 0.00 in0.0 mm 0.00 in0.0 mm
02:25 PM 72.9°F22.7°C 45.8°F7.7°C 38% 8.1 mph WSW13.0 kmh WSW 12.7 mph20.4 kmh 29.85 in1010.8 mb - 0.00 in0.0 mm 0.00 in0.0 mm
02:30 PM 73.0°F22.8°C 46.6°F8.1°C 39% 6.9 mph WSW11.1 kmh WSW 12.7 mph20.4 kmh 29.85 in1010.8 mb - 0.00 in0.0 mm 0.00 in0.0 mm
02:35 PM 73.2°F22.9°C 47.4°F8.6°C 40% 5.8 mph SW9.3 kmh SW 15.0 mph24.1 kmh 29.85 in1010.8 mb - 0.00 in0.0 mm 0.00 in0.0 mm
02:40 PM 73.4°F23.0°C 47.0°F8.3°C 39% 8.1 mph SW13.0 kmh SW 11.5 mph18.5 kmh 29.85 in1010.8 mb - 0.00 in0.0 mm 0.00 in0.0 mm
02:45 PM 73.7°F23.2°C 47.2°F8.4°C 39% 10.4 mph WSW16.7 kmh WSW 11.5 mph18.5 kmh 29.85 in1010.8 mb - 0.00 in0.0 mm 0.00 in0.0 mm
02:50 PM 73.5°F23.1°C 47.0°F8.3°C 39% 10.4 mph WSW16.7 kmh WSW 11.5 mph18.5 kmh 29.84 in1010.5 mb - 0.00 in0.0 mm 0.00 in0.0 mm
02:55 PM 73.4°F23.0°C 47.6°F8.7°C 40% 6.9 mph WSW11.1 kmh WSW 9.2 mph14.8 kmh 29.84 in1010.5 mb - 0.00 in0.0 mm 0.00 in0.0 mm
03:00 PM 73.4°F23.0°C 47.0°F8.3°C 39% 10.4 mph WSW16.7 kmh WSW 13.8 mph22.2 kmh 29.84 in1010.5 mb - 0.00 in0.0 mm 0.00 in0.0 mm
03:05 PM 73.1°F22.8°C 47.3°F8.5°C 40% 6.9 mph WSW11.1 kmh WSW 9.2 mph14.8 kmh 29.84 in1010.5 mb - 0.00 in0.0 mm 0.00 in0.0 mm
03:10 PM 73.3°F22.9°C 46.8°F8.2°C 39% 9.2 mph WSW14.8 kmh WSW 13.8 mph22.2 kmh 29.84 in1010.5 mb - 0.00 in0.0 mm 0.00 in0.0 mm
03:15 PM 73.3°F22.9°C 48.2°F9.0°C 41% 5.8 mph WSW9.3 kmh WSW 13.8 mph22.2 kmh 29.84 in1010.5 mb - 0.00 in0.0 mm 0.00 in0.0 mm
03:20 PM 73.4°F23.0°C 48.2°F9.0°C 41% 5.8 mph W9.3 kmh W 11.5 mph18.5 kmh 29.84 in1010.5 mb - 0.00 in0.0 mm 0.00 in0.0 mm
03:25 PM 73.2°F22.9°C 46.8°F8.2°C 39% 9.2 mph W14.8 kmh W 11.5 mph18.5 kmh 29.84 in1010.5 mb - 0.00 in0.0 mm 0.00 in0.0 mm
03:30 PM 73.3°F22.9°C 47.5°F8.6°C 40% 6.9 mph W11.1 kmh W 11.5 mph18.5 kmh 29.83 in1010.2 mb - 0.00 in0.0 mm 0.00 in0.0 mm
03:35 PM 73.4°F23.0°C 47.6°F8.7°C 40% 5.8 mph WSW9.3 kmh WSW 6.9 mph11.1 kmh 29.83 in1010.2 mb - 0.00 in0.0 mm 0.00 in0.0 mm
03:40 PM 73.8°F23.2°C 48.0°F8.9°C 40% 6.9 mph SW11.1 kmh SW 16.1 mph25.9 kmh 29.83 in1010.2 mb - 0.00 in0.0 mm 0.00 in0.0 mm
03:45 PM 73.9°F23.3°C 47.4°F8.6°C 39% 12.7 mph WSW20.4 kmh WSW 16.1 mph25.9 kmh 29.83 in1010.2 mb - 0.00 in0.0 mm 0.00 in0.0 mm
03:50 PM 73.6°F23.1°C 47.1°F8.4°C 39% 10.4 mph WSW16.7 kmh WSW 11.5 mph18.5 kmh 29.83 in1010.2 mb - 0.00 in0.0 mm 0.00 in0.0 mm
03:55 PM 73.5°F23.1°C 47.7°F8.7°C 40% 8.1 mph WSW13.0 kmh WSW 11.5 mph18.5 kmh 29.83 in1010.2 mb - 0.00 in0.0 mm 0.00 in0.0 mm
04:00 PM 73.4°F23.0°C 47.6°F8.7°C 40% 9.2 mph W14.8 kmh W 13.8 mph22.2 kmh 29.83 in1010.2 mb - 0.00 in0.0 mm 0.00 in0.0 mm
04:05 PM 73.3°F22.9°C 46.2°F7.9°C 38% 8.1 mph WSW13.0 kmh WSW 16.1 mph25.9 kmh 29.83 in1010.2 mb - 0.00 in0.0 mm 0.00 in0.0 mm
04:10 PM 73.4°F23.0°C 45.5°F7.5°C 37% 6.9 mph WSW11.1 kmh WSW 10.4 mph16.7 kmh 29.83 in1010.2 mb - 0.00 in0.0 mm 0.00 in0.0 mm
04:15 PM 73.6°F23.1°C 45.7°F7.6°C 37% 9.2 mph WSW14.8 kmh WSW 11.5 mph18.5 kmh 29.83 in1010.2 mb - 0.00 in0.0 mm 0.00 in0.0 mm
04:20 PM 73.7°F23.2°C 46.5°F8.1°C 38% 9.2 mph WSW14.8 kmh WSW 11.5 mph18.5 kmh 29.83 in1010.2 mb - 0.00 in0.0 mm 0.00 in0.0 mm
04:25 PM 73.5°F23.1°C 47.1°F8.4°C 39% 9.2 mph WSW14.8 kmh WSW 11.5 mph18.5 kmh 29.83 in1010.2 mb - 0.00 in0.0 mm 0.00 in0.0 mm
04:30 PM 73.5°F23.1°C 47.0°F8.3°C 39% 6.9 mph SW11.1 kmh SW 10.4 mph16.7 kmh 29.83 in1010.2 mb - 0.00 in0.0 mm 0.00 in0.0 mm
04:35 PM 73.6°F23.1°C 48.4°F9.1°C 41% 6.9 mph WSW11.1 kmh WSW 12.7 mph20.4 kmh 29.83 in1010.2 mb - 0.00 in0.0 mm 0.00 in0.0 mm
04:40 PM 73.5°F23.1°C 48.3°F9.1°C 41% 5.8 mph WSW9.3 kmh WSW 11.5 mph18.5 kmh 29.83 in1010.2 mb - 0.00 in0.0 mm 0.00 in0.0 mm
04:45 PM 73.3°F22.9°C 48.1°F8.9°C 41% 9.2 mph WSW14.8 kmh WSW 11.5 mph18.5 kmh 29.83 in1010.2 mb - 0.00 in0.0 mm 0.00 in0.0 mm
04:50 PM 72.9°F22.7°C 48.5°F9.2°C 42% 6.9 mph SW11.1 kmh SW 11.5 mph18.5 kmh 29.83 in1010.2 mb - 0.00 in0.0 mm 0.00 in0.0 mm
04:55 PM 72.8°F22.7°C 48.4°F9.1°C 42% 5.8 mph WSW9.3 kmh WSW 9.2 mph14.8 kmh 29.83 in1010.2 mb - 0.00 in0.0 mm 0.00 in0.0 mm
05:00 PM 72.6°F22.6°C 48.2°F9.0°C 42% 8.1 mph WSW13.0 kmh WSW 10.4 mph16.7 kmh 29.83 in1010.2 mb - 0.00 in0.0 mm 0.00 in0.0 mm
05:05 PM 72.5°F22.5°C 48.7°F9.3°C 43% 4.6 mph WSW7.4 kmh WSW 8.1 mph13.0 kmh 29.83 in1010.2 mb - 0.00 in0.0 mm 0.00 in0.0 mm
05:10 PM 72.5°F22.5°C 48.1°F8.9°C 42% 5.8 mph WSW9.3 kmh WSW 11.5 mph18.5 kmh 29.83 in1010.2 mb - 0.00 in0.0 mm 0.00 in0.0 mm
05:15 PM 72.2°F22.3°C 47.8°F8.8°C 42% 5.8 mph W9.3 kmh W 8.1 mph13.0 kmh 29.83 in1010.2 mb - 0.00 in0.0 mm 0.00 in0.0 mm
05:20 PM 71.8°F22.1°C 47.5°F8.6°C 42% 6.9 mph W11.1 kmh W 10.4 mph16.7 kmh 29.83 in1010.2 mb - 0.00 in0.0 mm 0.00 in0.0 mm
05:25 PM 71.5°F21.9°C 47.8°F8.8°C 43% 6.9 mph W11.1 kmh W 10.4 mph16.7 kmh 29.83 in1010.2 mb - 0.00 in0.0 mm 0.00 in0.0 mm
05:30 PM 71.1°F21.7°C 47.5°F8.6°C 43% 4.6 mph WSW7.4 kmh WSW 5.8 mph9.3 kmh 29.83 in1010.2 mb - 0.00 in0.0 mm 0.00 in0.0 mm
05:35 PM 71.0°F21.7°C 47.4°F8.6°C 43% 6.9 mph WSW11.1 kmh WSW 10.4 mph16.7 kmh 29.84 in1010.5 mb - 0.00 in0.0 mm 0.00 in0.0 mm
05:40 PM 70.7°F21.5°C 47.7°F8.7°C 44% 4.6 mph W7.4 kmh W 9.2 mph14.8 kmh 29.84 in1010.5 mb - 0.00 in0.0 mm 0.00 in0.0 mm
05:45 PM 70.4°F21.3°C 46.8°F8.2°C 43% 5.8 mph WSW9.3 kmh WSW 8.1 mph13.0 kmh 29.84 in1010.5 mb - 0.00 in0.0 mm 0.00 in0.0 mm
05:50 PM 70.0°F21.1°C 46.5°F8.1°C 43% 5.8 mph W9.3 kmh W 9.2 mph14.8 kmh 29.84 in1010.5 mb - 0.00 in0.0 mm 0.00 in0.0 mm
05:55 PM 69.5°F20.8°C 46.6°F8.1°C 44% 8.1 mph WSW13.0 kmh WSW 10.4 mph16.7 kmh 29.84 in1010.5 mb - 0.00 in0.0 mm 0.00 in0.0 mm
06:00 PM 69.1°F20.6°C 46.2°F7.9°C 44% 5.8 mph W9.3 kmh W 5.8 mph9.3 kmh 29.84 in1010.5 mb - 0.00 in0.0 mm 0.00 in0.0 mm
06:05 PM 68.7°F20.4°C 46.5°F8.1°C 45% 5.8 mph W9.3 kmh W 8.1 mph13.0 kmh 29.85 in1010.8 mb - 0.00 in0.0 mm 0.00 in0.0 mm
06:10 PM 68.5°F20.3°C 46.9°F8.3°C 46% 3.5 mph W5.6 kmh W 4.6 mph7.4 kmh 29.85 in1010.8 mb - 0.00 in0.0 mm 0.00 in0.0 mm
06:15 PM 68.3°F20.2°C 46.7°F8.2°C 46% 3.5 mph W5.6 kmh W 6.9 mph11.1 kmh 29.85 in1010.8 mb - 0.00 in0.0 mm 0.00 in0.0 mm
06:20 PM 68.0°F20.0°C 46.4°F8.0°C 46% 6.9 mph W11.1 kmh W 10.4 mph16.7 kmh 29.84 in1010.5 mb - 0.00 in0.0 mm 0.00 in0.0 mm
06:25 PM 67.5°F19.7°C 46.5°F8.1°C 47% 4.6 mph W7.4 kmh W 5.8 mph9.3 kmh 29.84 in1010.5 mb - 0.00 in0.0 mm 0.00 in0.0 mm
06:30 PM 67.1°F19.5°C 46.7°F8.2°C 48% 3.5 mph W5.6 kmh W 3.5 mph5.6 kmh 29.85 in1010.8 mb - 0.00 in0.0 mm 0.00 in0.0 mm
06:35 PM 66.8°F19.3°C 46.5°F8.1°C 48% 2.3 mph W3.7 kmh W 4.6 mph7.4 kmh 29.85 in1010.8 mb - 0.00 in0.0 mm 0.00 in0.0 mm
06:40 PM 66.6°F19.2°C 46.2°F7.9°C 48% 3.5 mph W5.6 kmh W 4.6 mph7.4 kmh 29.85 in1010.8 mb - 0.00 in0.0 mm 0.00 in0.0 mm
06:45 PM 66.2°F19.0°C 46.0°F7.8°C 48% 6.9 mph WNW11.1 kmh WNW 8.1 mph13.0 kmh 29.85 in1010.8 mb - 0.00 in0.0 mm 0.00 in0.0 mm
06:50 PM 65.8°F18.8°C 46.1°F7.8°C 49% 5.8 mph NW9.3 kmh NW 8.1 mph13.0 kmh 29.85 in1010.8 mb - 0.00 in0.0 mm 0.00 in0.0 mm
06:55 PM 65.5°F18.6°C 45.8°F7.7°C 49% 6.9 mph WNW11.1 kmh WNW 10.4 mph16.7 kmh 29.85 in1010.8 mb - 0.00 in0.0 mm 0.00 in0.0 mm
07:00 PM 65.2°F18.4°C 46.1°F7.8°C 50% 4.6 mph WNW7.4 kmh WNW 4.6 mph7.4 kmh 29.85 in1010.8 mb - 0.00 in0.0 mm 0.00 in0.0 mm
07:05 PM 64.9°F18.3°C 46.3°F7.9°C 51% 3.5 mph WNW5.6 kmh WNW 10.4 mph16.7 kmh 29.86 in1011.2 mb - 0.00 in0.0 mm 0.00 in0.0 mm
07:10 PM 64.7°F18.2°C 46.1°F7.8°C 51% 4.6 mph NW7.4 kmh NW 6.9 mph11.1 kmh 29.86 in1011.2 mb - 0.00 in0.0 mm 0.00 in0.0 mm
07:15 PM 64.4°F18.0°C 45.9°F7.7°C 51% 4.6 mph NW7.4 kmh NW 11.5 mph18.5 kmh 29.86 in1011.2 mb - 0.00 in0.0 mm 0.00 in0.0 mm
07:20 PM 64.2°F17.9°C 45.6°F7.6°C 51% 5.8 mph WSW9.3 kmh WSW 9.2 mph14.8 kmh 29.86 in1011.2 mb - 0.00 in0.0 mm 0.00 in0.0 mm
07:25 PM 64.0°F17.8°C 46.0°F7.8°C 52% 3.5 mph WSW5.6 kmh WSW 3.5 mph5.6 kmh 29.87 in1011.5 mb - 0.00 in0.0 mm 0.00 in0.0 mm
07:30 PM 63.8°F17.7°C 45.8°F7.7°C 52% 2.3 mph WSW3.7 kmh WSW 3.5 mph5.6 kmh 29.87 in1011.5 mb - 0.00 in0.0 mm 0.00 in0.0 mm
07:35 PM 63.6°F17.6°C 45.6°F7.6°C 52% 2.3 mph WSW3.7 kmh WSW 3.5 mph5.6 kmh 29.88 in1011.9 mb - 0.00 in0.0 mm 0.00 in0.0 mm
07:40 PM 63.3°F17.4°C 45.8°F7.7°C 53% 3.5 mph WSW5.6 kmh WSW 3.5 mph5.6 kmh 29.88 in1011.9 mb - 0.00 in0.0 mm 0.00 in0.0 mm
07:45 PM 62.9°F17.2°C 45.5°F7.5°C 53% 5.8 mph W9.3 kmh W 5.8 mph9.3 kmh 29.88 in1011.9 mb - 0.00 in0.0 mm 0.00 in0.0 mm
07:50 PM 62.6°F17.0°C 45.2°F7.3°C 53% 2.3 mph W3.7 kmh W 3.5 mph5.6 kmh 29.88 in1011.9 mb - 0.00 in0.0 mm 0.00 in0.0 mm
07:55 PM 62.4°F16.9°C 45.0°F7.2°C 53% 4.6 mph WNW7.4 kmh WNW 8.1 mph13.0 kmh 29.88 in1011.9 mb - 0.00 in0.0 mm 0.00 in0.0 mm
08:00 PM 62.1°F16.7°C 45.3°F7.4°C 54% 2.3 mph WNW3.7 kmh WNW 6.9 mph11.1 kmh 29.88 in1011.9 mb - 0.00 in0.0 mm 0.00 in0.0 mm
08:05 PM 61.9°F16.6°C 45.1°F7.3°C 54% 3.5 mph WNW5.6 kmh WNW 9.2 mph14.8 kmh 29.88 in1011.9 mb - 0.00 in0.0 mm 0.00 in0.0 mm
08:10 PM 61.7°F16.5°C 44.8°F7.1°C 54% 5.8 mph WNW9.3 kmh WNW 8.1 mph13.0 kmh 29.88 in1011.9 mb - 0.00 in0.0 mm 0.00 in0.0 mm
08:15 PM 61.4°F16.3°C 44.6°F7.0°C 54% 4.6 mph W7.4 kmh W 6.9 mph11.1 kmh 29.88 in1011.9 mb - 0.00 in0.0 mm 0.00 in0.0 mm
08:20 PM 61.2°F16.2°C 44.4°F6.9°C 54% 4.6 mph WNW7.4 kmh WNW 8.1 mph13.0 kmh 29.88 in1011.9 mb - 0.00 in0.0 mm 0.00 in0.0 mm
08:25 PM 60.9°F16.1°C 44.6°F7.0°C 55% 4.6 mph WNW7.4 kmh WNW 8.1 mph13.0 kmh 29.89 in1012.2 mb - 0.00 in0.0 mm 0.00 in0.0 mm
08:30 PM 60.6°F15.9°C 44.3°F6.8°C 55% 4.6 mph WNW7.4 kmh WNW 6.9 mph11.1 kmh 29.89 in1012.2 mb - 0.00 in0.0 mm 0.00 in0.0 mm
08:35 PM 60.3°F15.7°C 44.1°F6.7°C 55% 4.6 mph WNW7.4 kmh WNW 5.8 mph9.3 kmh 29.89 in1012.2 mb - 0.00 in0.0 mm 0.00 in0.0 mm
08:40 PM 60.0°F15.6°C 44.3°F6.8°C 56% 4.6 mph WNW7.4 kmh WNW 6.9 mph11.1 kmh 29.89 in1012.2 mb - 0.00 in0.0 mm 0.00 in0.0 mm
08:45 PM 59.7°F15.4°C 44.0°F6.7°C 56% 3.5 mph WSW5.6 kmh WSW 3.5 mph5.6 kmh 29.89 in1012.2 mb - 0.00 in0.0 mm 0.00 in0.0 mm
08:50 PM 59.5°F15.3°C 44.2°F6.8°C 57% 3.5 mph WNW5.6 kmh WNW 3.5 mph5.6 kmh 29.89 in1012.2 mb - 0.00 in0.0 mm 0.00 in0.0 mm
08:55 PM 59.3°F15.2°C 44.5°F6.9°C 58% 3.5 mph NW5.6 kmh NW 6.9 mph11.1 kmh 29.89 in1012.2 mb - 0.00 in0.0 mm 0.00 in0.0 mm
09:00 PM 59.0°F15.0°C 44.2°F6.8°C 58% 3.5 mph W5.6 kmh W 5.8 mph9.3 kmh 29.90 in1012.5 mb - 0.00 in0.0 mm 0.00 in0.0 mm
09:05 PM 58.8°F14.9°C 44.0°F6.7°C 58% 6.9 mph E11.1 kmh E 10.4 mph16.7 kmh 29.91 in1012.9 mb - 0.00 in0.0 mm 0.00 in0.0 mm
09:10 PM 58.1°F14.5°C 43.9°F6.6°C 59% 3.5 mph ESE5.6 kmh ESE 4.6 mph7.4 kmh 29.91 in1012.9 mb - 0.00 in0.0 mm 0.00 in0.0 mm
09:15 PM 57.9°F14.4°C 44.1°F6.7°C 60% 2.3 mph ESE3.7 kmh ESE 5.8 mph9.3 kmh 29.91 in1012.9 mb - 0.00 in0.0 mm 0.00 in0.0 mm
09:20 PM 57.4°F14.1°C 44.1°F6.7°C 61% 4.6 mph E7.4 kmh E 5.8 mph9.3 kmh 29.92 in1013.2 mb - 0.00 in0.0 mm 0.00 in0.0 mm
09:25 PM 57.1°F13.9°C 43.8°F6.6°C 61% 2.3 mph E3.7 kmh E 3.5 mph5.6 kmh 29.92 in1013.2 mb - 0.00 in0.0 mm 0.00 in0.0 mm
09:30 PM 57.1°F13.9°C 43.8°F6.6°C 61% 1.2 mph E1.9 kmh E 2.3 mph3.7 kmh 29.92 in1013.2 mb - 0.00 in0.0 mm 0.00 in0.0 mm
09:35 PM 56.9°F13.8°C 44.0°F6.7°C 62% 3.5 mph E5.6 kmh E 4.6 mph7.4 kmh 29.92 in1013.2 mb - 0.00 in0.0 mm 0.00 in0.0 mm
09:40 PM 56.7°F13.7°C 44.2°F6.8°C 63% 2.3 mph E3.7 kmh E 4.6 mph7.4 kmh 29.93 in1013.5 mb - 0.00 in0.0 mm 0.00 in0.0 mm
09:45 PM 56.5°F13.6°C 44.1°F6.7°C 63% 2.3 mph E3.7 kmh E 3.5 mph5.6 kmh 29.93 in1013.5 mb - 0.00 in0.0 mm 0.00 in0.0 mm
09:50 PM 56.3°F13.5°C 43.9°F6.6°C 63% 2.3 mph E3.7 kmh E 3.5 mph5.6 kmh 29.93 in1013.5 mb - 0.00 in0.0 mm 0.00 in0.0 mm
09:55 PM 56.2°F13.4°C 43.8°F6.6°C 63% 2.3 mph E3.7 kmh E 4.6 mph7.4 kmh 29.93 in1013.5 mb - 0.00 in0.0 mm 0.00 in0.0 mm
10:00 PM 56.1°F13.4°C 43.7°F6.5°C 63% 2.3 mph E3.7 kmh E 4.6 mph7.4 kmh 29.93 in1013.5 mb - 0.00 in0.0 mm 0.00 in0.0 mm
10:05 PM 56.0°F13.3°C 43.6°F6.4°C 63% 3.5 mph NE5.6 kmh NE 3.5 mph5.6 kmh 29.93 in1013.5 mb - 0.00 in0.0 mm 0.00 in0.0 mm
10:10 PM 56.0°F13.3°C 43.5°F6.4°C 63% 3.5 mph N5.6 kmh N 3.5 mph5.6 kmh 29.93 in1013.5 mb - 0.00 in0.0 mm 0.00 in0.0 mm
10:15 PM 55.8°F13.2°C 43.8°F6.6°C 64% 4.6 mph NNW7.4 kmh NNW 4.6 mph7.4 kmh 29.93 in1013.5 mb - 0.00 in0.0 mm 0.00 in0.0 mm
10:20 PM 55.8°F13.2°C 43.8°F6.6°C 64% 4.6 mph N7.4 kmh N 4.6 mph7.4 kmh 29.93 in1013.5 mb - 0.00 in0.0 mm 0.00 in0.0 mm
10:25 PM 55.8°F13.2°C 43.8°F6.6°C 64% 2.3 mph N3.7 kmh N 3.5 mph5.6 kmh 29.93 in1013.5 mb - 0.00 in0.0 mm 0.00 in0.0 mm
10:30 PM 55.9°F13.3°C 43.9°F6.6°C 64% 3.5 mph NNW5.6 kmh NNW 4.6 mph7.4 kmh 29.93 in1013.5 mb - 0.00 in0.0 mm 0.00 in0.0 mm
10:35 PM 56.0°F13.3°C 43.6°F6.4°C 63% 3.5 mph E5.6 kmh E 6.9 mph11.1 kmh 29.93 in1013.5 mb - 0.00 in0.0 mm 0.00 in0.0 mm
10:40 PM 55.2°F12.9°C 43.3°F6.3°C 64% 3.5 mph E5.6 kmh E 5.8 mph9.3 kmh 29.94 in1013.9 mb - 0.00 in0.0 mm 0.00 in0.0 mm
10:45 PM 54.7°F12.6°C 43.2°F6.2°C 65% 2.3 mph E3.7 kmh E 3.5 mph5.6 kmh 29.94 in1013.9 mb - 0.00 in0.0 mm 0.00 in0.0 mm
10:50 PM 54.9°F12.7°C 43.4°F6.3°C 65% 1.2 mph E1.9 kmh E 2.3 mph3.7 kmh 29.95 in1014.2 mb - 0.00 in0.0 mm 0.00 in0.0 mm
10:55 PM 55.1°F12.8°C 43.1°F6.2°C 64% 1.2 mph E1.9 kmh E 2.3 mph3.7 kmh 29.95 in1014.2 mb - 0.00 in0.0 mm 0.00 in0.0 mm
11:00 PM 55.2°F12.9°C 43.2°F6.2°C 64% Calm Calm -- 29.95 in1014.2 mb - 0.00 in0.0 mm 0.00 in0.0 mm
11:05 PM 55.2°F12.9°C 43.2°F6.2°C 64% 1.2 mph E1.9 kmh E 2.3 mph3.7 kmh 29.95 in1014.2 mb - 0.00 in0.0 mm 0.00 in0.0 mm
11:10 PM 55.1°F12.8°C 43.1°F6.2°C 64% 1.2 mph E1.9 kmh E 2.3 mph3.7 kmh 29.95 in1014.2 mb - 0.00 in0.0 mm 0.00 in0.0 mm
11:15 PM 55.0°F12.8°C 43.0°F6.1°C 64% 1.2 mph E1.9 kmh E 2.3 mph3.7 kmh 29.95 in1014.2 mb - 0.00 in0.0 mm 0.00 in0.0 mm
11:20 PM 54.9°F12.7°C 42.9°F6.1°C 64% 2.3 mph E3.7 kmh E 2.3 mph3.7 kmh 29.95 in1014.2 mb - 0.00 in0.0 mm 0.00 in0.0 mm
11:25 PM 54.7°F12.6°C 43.2°F6.2°C 65% 2.3 mph E3.7 kmh E 4.6 mph7.4 kmh 29.95 in1014.2 mb - 0.00 in0.0 mm 0.00 in0.0 mm
11:30 PM 54.6°F12.6°C 43.5°F6.4°C 66% 2.3 mph E3.7 kmh E 2.3 mph3.7 kmh 29.95 in1014.2 mb - 0.00 in0.0 mm 0.00 in0.0 mm
11:35 PM 54.6°F12.6°C 43.5°F6.4°C 66% 2.3 mph E3.7 kmh E 3.5 mph5.6 kmh 29.95 in1014.2 mb - 0.00 in0.0 mm 0.00 in0.0 mm
11:40 PM 54.5°F12.5°C 43.3°F6.3°C 66% 2.3 mph E3.7 kmh E 2.3 mph3.7 kmh 29.95 in1014.2 mb - 0.00 in0.0 mm 0.00 in0.0 mm
11:45 PM 54.3°F12.4°C 43.6°F6.4°C 67% 1.2 mph E1.9 kmh E 2.3 mph3.7 kmh 29.95 in1014.2 mb - 0.00 in0.0 mm 0.00 in0.0 mm
11:50 PM 54.1°F12.3°C 43.8°F6.6°C 68% 2.3 mph E3.7 kmh E 3.5 mph5.6 kmh 29.95 in1014.2 mb - 0.00 in0.0 mm 0.00 in0.0 mm
11:55 PM 54.0°F12.2°C 43.7°F6.5°C 68% 3.5 mph E5.6 kmh E 3.5 mph5.6 kmh 29.95 in1014.2 mb - 0.00 in0.0 mm 0.00 in0.0 mm